sensor_id;sensor_type;location;lat;lon;timestamp;pressure;altitude;pressure_sealevel;temperature;humidity
43553;BME280;29153;42.696;23.218;2023-04-26T00:02:22;93445.16;;;6.56;100.00
43553;BME280;29153;42.696;23.218;2023-04-26T00:04:53;93534.61;;;6.97;100.00
43553;BME280;29153;42.696;23.218;2023-04-26T00:07:25;93530.44;;;6.91;100.00
43553;BME280;29153;42.696;23.218;2023-04-26T00:09:53;93522.50;;;6.94;100.00
43553;BME280;29153;42.696;23.218;2023-04-26T00:12:21;93517.83;;;6.85;100.00
43553;BME280;29153;42.696;23.218;2023-04-26T00:14:49;93519.18;;;6.83;100.00
43553;BME280;29153;42.696;23.218;2023-04-26T00:17:18;93512.19;;;6.66;100.00
43553;BME280;29153;42.696;23.218;2023-04-26T00:19:45;93512.75;;;6.63;100.00
43553;BME280;29153;42.696;23.218;2023-04-26T00:22:13;93510.91;;;6.61;100.00
43553;BME280;29153;42.696;23.218;2023-04-26T00:24:40;93508.11;;;6.42;100.00
43553;BME280;29153;42.696;23.218;2023-04-26T00:27:08;93503.48;;;6.26;100.00
43553;BME280;29153;42.696;23.218;2023-04-26T00:29:36;93499.82;;;6.22;100.00
43553;BME280;29153;42.696;23.218;2023-04-26T00:32:04;93501.97;;;6.15;100.00
43553;BME280;29153;42.696;23.218;2023-04-26T00:34:32;93495.44;;;6.05;100.00
43553;BME280;29153;42.696;23.218;2023-04-26T00:37:00;93440.88;;;5.74;100.00
43553;BME280;29153;42.696;23.218;2023-04-26T00:39:28;93418.41;;;5.45;100.00
43553;BME280;29153;42.696;23.218;2023-04-26T00:41:55;93494.45;;;5.86;100.00
43553;BME280;29153;42.696;23.218;2023-04-26T00:44:23;93489.71;;;5.83;100.00
43553;BME280;29153;42.696;23.218;2023-04-26T00:46:52;93488.92;;;5.82;100.00
43553;BME280;29153;42.696;23.218;2023-04-26T00:49:22;93495.54;;;5.77;100.00
43553;BME280;29153;42.696;23.218;2023-04-26T00:51:56;93491.58;;;5.80;100.00
43553;BME280;29153;42.696;23.218;2023-04-26T00:54:24;93496.02;;;5.82;100.00
43553;BME280;29153;42.696;23.218;2023-04-26T00:56:51;93493.67;;;5.78;100.00
43553;BME280;29153;42.696;23.218;2023-04-26T00:59:20;93494.47;;;5.81;100.00
43553;BME280;29153;42.696;23.218;2023-04-26T01:01:48;93492.63;;;5.74;100.00
43553;BME280;29153;42.696;23.218;2023-04-26T01:04:16;93493.45;;;5.72;100.00
43553;BME280;29153;42.696;23.218;2023-04-26T01:06:44;93496.08;;;5.67;100.00
43553;BME280;29153;42.696;23.218;2023-04-26T01:09:12;93506.58;;;5.72;100.00
43553;BME280;29153;42.696;23.218;2023-04-26T01:11:41;93511.87;;;5.64;100.00
43553;BME280;29153;42.696;23.218;2023-04-26T01:14:09;93513.44;;;5.63;100.00
43553;BME280;29153;42.696;23.218;2023-04-26T01:16:37;93505.80;;;5.66;100.00
43553;BME280;29153;42.696;23.218;2023-04-26T01:19:11;93505.55;;;5.68;100.00
43553;BME280;29153;42.696;23.218;2023-04-26T01:21:39;93498.45;;;5.68;100.00
43553;BME280;29153;42.696;23.218;2023-04-26T01:24:09;93492.69;;;5.64;100.00
43553;BME280;29153;42.696;23.218;2023-04-26T01:26:37;93489.80;;;5.63;100.00
43553;BME280;29153;42.696;23.218;2023-04-26T01:29:15;93491.89;;;5.61;100.00
43553;BME280;29153;42.696;23.218;2023-04-26T01:31:42;93494.29;;;5.55;100.00
43553;BME280;29153;42.696;23.218;2023-04-26T01:34:10;93441.84;;;5.24;100.00
43553;BME280;29153;42.696;23.218;2023-04-26T01:36:38;93505.58;;;5.60;100.00
43553;BME280;29153;42.696;23.218;2023-04-26T01:39:05;93507.69;;;5.56;100.00
43553;BME280;29153;42.696;23.218;2023-04-26T01:41:36;93502.41;;;5.58;100.00
43553;BME280;29153;42.696;23.218;2023-04-26T01:44:04;93512.42;;;5.51;100.00
43553;BME280;29153;42.696;23.218;2023-04-26T01:46:32;93513.95;;;5.67;100.00
43553;BME280;29153;42.696;23.218;2023-04-26T01:48:59;93512.91;;;5.68;100.00
43553;BME280;29153;42.696;23.218;2023-04-26T01:51:27;93509.71;;;5.74;100.00
43553;BME280;29153;42.696;23.218;2023-04-26T01:53:54;93505.50;;;5.80;100.00
43553;BME280;29153;42.696;23.218;2023-04-26T01:56:23;93497.34;;;5.84;100.00
43553;BME280;29153;42.696;23.218;2023-04-26T01:58:51;93499.16;;;5.97;100.00
43553;BME280;29153;42.696;23.218;2023-04-26T02:01:20;93489.41;;;6.02;100.00
43553;BME280;29153;42.696;23.218;2023-04-26T02:03:48;93485.97;;;6.07;100.00
43553;BME280;29153;42.696;23.218;2023-04-26T02:06:15;93482.01;;;6.09;100.00
43553;BME280;29153;42.696;23.218;2023-04-26T02:08:43;93474.63;;;6.14;100.00
43553;BME280;29153;42.696;23.218;2023-04-26T02:11:11;93476.47;;;6.16;100.00
43553;BME280;29153;42.696;23.218;2023-04-26T02:13:39;93469.87;;;6.18;100.00
43553;BME280;29153;42.696;23.218;2023-04-26T02:16:06;93475.15;;;6.13;100.00
43553;BME280;29153;42.696;23.218;2023-04-26T02:18:34;93473.86;;;6.08;100.00
43553;BME280;29153;42.696;23.218;2023-04-26T02:21:01;93467.55;;;6.09;100.00
43553;BME280;29153;42.696;23.218;2023-04-26T02:23:29;93465.78;;;5.97;100.00
43553;BME280;29153;42.696;23.218;2023-04-26T02:25:56;93463.65;;;5.99;100.00
43553;BME280;29153;42.696;23.218;2023-04-26T02:28:24;93468.36;;;6.05;100.00
43553;BME280;29153;42.696;23.218;2023-04-26T02:30:52;93472.83;;;6.04;100.00
43553;BME280;29153;42.696;23.218;2023-04-26T02:33:19;93469.97;;;6.03;100.00
43553;BME280;29153;42.696;23.218;2023-04-26T02:35:47;93475.70;;;6.10;100.00
43553;BME280;29153;42.696;23.218;2023-04-26T02:38:16;93474.10;;;6.14;100.00
43553;BME280;29153;42.696;23.218;2023-04-26T02:40:43;93480.62;;;6.22;100.00
43553;BME280;29153;42.696;23.218;2023-04-26T02:43:11;93485.00;;;6.39;100.00
43553;BME280;29153;42.696;23.218;2023-04-26T02:45:42;93474.69;;;6.50;100.00
43553;BME280;29153;42.696;23.218;2023-04-26T02:48:09;93468.02;;;6.60;100.00
43553;BME280;29153;42.696;23.218;2023-04-26T02:50:37;93464.77;;;6.76;100.00
43553;BME280;29153;42.696;23.218;2023-04-26T02:53:04;93466.23;;;6.87;100.00
43553;BME280;29153;42.696;23.218;2023-04-26T02:55:32;93464.92;;;6.87;100.00
43553;BME280;29153;42.696;23.218;2023-04-26T02:57:59;93459.96;;;6.80;100.00
43553;BME280;29153;42.696;23.218;2023-04-26T03:00:27;93462.71;;;6.99;100.00
43553;BME280;29153;42.696;23.218;2023-04-26T03:02:54;93465.68;;;6.90;100.00
43553;BME280;29153;42.696;23.218;2023-04-26T03:05:22;93458.84;;;6.89;100.00
43553;BME280;29153;42.696;23.218;2023-04-26T03:07:49;93457.75;;;6.95;100.00
43553;BME280;29153;42.696;23.218;2023-04-26T03:10:17;93459.33;;;6.96;100.00
43553;BME280;29153;42.696;23.218;2023-04-26T03:12:45;93457.70;;;7.00;100.00
43553;BME280;29153;42.696;23.218;2023-04-26T03:15:12;93460.80;;;7.07;100.00
43553;BME280;29153;42.696;23.218;2023-04-26T03:17:40;93461.09;;;7.06;100.00
43553;BME280;29153;42.696;23.218;2023-04-26T03:20:08;93458.72;;;7.04;100.00
43553;BME280;29153;42.696;23.218;2023-04-26T03:22:36;93461.39;;;6.99;100.00
43553;BME280;29153;42.696;23.218;2023-04-26T03:25:04;93457.41;;;7.04;100.00
43553;BME280;29153;42.696;23.218;2023-04-26T03:27:32;93459.55;;;7.00;100.00
43553;BME280;29153;42.696;23.218;2023-04-26T03:29:59;93455.41;;;6.91;100.00
43553;BME280;29153;42.696;23.218;2023-04-26T03:32:27;93465.61;;;6.98;100.00
43553;BME280;29153;42.696;23.218;2023-04-26T03:34:55;93469.55;;;7.00;100.00
43553;BME280;29153;42.696;23.218;2023-04-26T03:37:22;93457.45;;;6.99;100.00
43553;BME280;29153;42.696;23.218;2023-04-26T03:39:50;93468.05;;;6.89;100.00
43553;BME280;29153;42.696;23.218;2023-04-26T03:42:22;93480.09;;;6.98;100.00
43553;BME280;29153;42.696;23.218;2023-04-26T03:44:49;93475.61;;;7.01;100.00
43553;BME280;29153;42.696;23.218;2023-04-26T03:47:17;93475.09;;;6.99;100.00
43553;BME280;29153;42.696;23.218;2023-04-26T03:49:44;93483.28;;;6.95;100.00
43553;BME280;29153;42.696;23.218;2023-04-26T03:52:12;93488.61;;;6.87;100.00
43553;BME280;29153;42.696;23.218;2023-04-26T03:54:39;93484.66;;;6.87;100.00
43553;BME280;29153;42.696;23.218;2023-04-26T03:57:07;93494.86;;;6.96;100.00
43553;BME280;29153;42.696;23.218;2023-04-26T03:59:34;93496.44;;;6.97;100.00
43553;BME280;29153;42.696;23.218;2023-04-26T04:02:02;93493.58;;;6.91;100.00
43553;BME280;29153;42.696;23.218;2023-04-26T04:04:30;93493.25;;;6.98;100.00
43553;BME280;29153;42.696;23.218;2023-04-26T04:06:59;93492.20;;;6.99;100.00
43553;BME280;29153;42.696;23.218;2023-04-26T04:09:26;93504.60;;;6.96;100.00
43553;BME280;29153;42.696;23.218;2023-04-26T04:11:54;93500.09;;;6.99;100.00
43553;BME280;29153;42.696;23.218;2023-04-26T04:14:22;93498.70;;;7.06;100.00
43553;BME280;29153;42.696;23.218;2023-04-26T04:16:49;93504.20;;;7.12;100.00
43553;BME280;29153;42.696;23.218;2023-04-26T04:19:17;93506.45;;;7.26;100.00
43553;BME280;29153;42.696;23.218;2023-04-26T04:21:44;93508.98;;;7.37;100.00
43553;BME280;29153;42.696;23.218;2023-04-26T04:24:12;93503.36;;;7.46;100.00
43553;BME280;29153;42.696;23.218;2023-04-26T04:26:39;93504.11;;;7.49;100.00
43553;BME280;29153;42.696;23.218;2023-04-26T04:29:07;93502.66;;;7.64;100.00
43553;BME280;29153;42.696;23.218;2023-04-26T04:31:36;93510.95;;;7.76;100.00
43553;BME280;29153;42.696;23.218;2023-04-26T04:34:05;93511.39;;;7.83;100.00
43553;BME280;29153;42.696;23.218;2023-04-26T04:36:32;93514.56;;;8.06;100.00
43553;BME280;29153;42.696;23.218;2023-04-26T04:39:00;93512.30;;;8.18;100.00
43553;BME280;29153;42.696;23.218;2023-04-26T04:41:27;93516.07;;;8.36;100.00
43553;BME280;29153;42.696;23.218;2023-04-26T04:43:55;93507.09;;;8.56;100.00
43553;BME280;29153;42.696;23.218;2023-04-26T04:46:22;93515.85;;;8.73;100.00
43553;BME280;29153;42.696;23.218;2023-04-26T04:48:50;93510.01;;;8.92;100.00
43553;BME280;29153;42.696;23.218;2023-04-26T04:51:18;93511.05;;;9.09;100.00
43553;BME280;29153;42.696;23.218;2023-04-26T04:53:46;93515.27;;;9.27;100.00
43553;BME280;29153;42.696;23.218;2023-04-26T04:56:14;93518.65;;;9.30;100.00
43553;BME280;29153;42.696;23.218;2023-04-26T04:58:43;93507.93;;;9.24;100.00
43553;BME280;29153;42.696;23.218;2023-04-26T05:01:10;93511.51;;;9.30;100.00
43553;BME280;29153;42.696;23.218;2023-04-26T05:03:38;93512.89;;;9.41;100.00
43553;BME280;29153;42.696;23.218;2023-04-26T05:06:05;93513.52;;;9.52;100.00
43553;BME280;29153;42.696;23.218;2023-04-26T05:08:33;93516.19;;;9.66;100.00
43553;BME280;29153;42.696;23.218;2023-04-26T05:11:01;93515.77;;;9.75;100.00
43553;BME280;29153;42.696;23.218;2023-04-26T05:13:29;93516.59;;;9.86;100.00
43553;BME280;29153;42.696;23.218;2023-04-26T05:15:56;93514.43;;;9.88;100.00
43553;BME280;29153;42.696;23.218;2023-04-26T05:18:24;93509.47;;;10.00;100.00
43553;BME280;29153;42.696;23.218;2023-04-26T05:20:51;93514.79;;;10.12;100.00
43553;BME280;29153;42.696;23.218;2023-04-26T05:23:19;93517.75;;;10.24;100.00
43553;BME280;29153;42.696;23.218;2023-04-26T05:25:46;93516.16;;;10.50;100.00
43553;BME280;29153;42.696;23.218;2023-04-26T05:28:14;93515.00;;;10.78;100.00
43553;BME280;29153;42.696;23.218;2023-04-26T05:30:42;93519.01;;;11.01;100.00
43553;BME280;29153;42.696;23.218;2023-04-26T05:33:09;93518.43;;;11.04;98.81
43553;BME280;29153;42.696;23.218;2023-04-26T05:35:36;93523.97;;;11.16;97.83
43553;BME280;29153;42.696;23.218;2023-04-26T05:38:04;93523.79;;;11.23;94.31
43553;BME280;29153;42.696;23.218;2023-04-26T05:40:32;93520.41;;;11.31;94.59
43553;BME280;29153;42.696;23.218;2023-04-26T05:42:59;93529.13;;;11.43;95.03
43553;BME280;29153;42.696;23.218;2023-04-26T05:45:27;93533.23;;;11.49;94.17
43553;BME280;29153;42.696;23.218;2023-04-26T05:47:54;93533.48;;;11.50;93.27
43553;BME280;29153;42.696;23.218;2023-04-26T05:50:22;93542.33;;;11.68;94.59
43553;BME280;29153;42.696;23.218;2023-04-26T05:52:49;93546.85;;;11.67;91.26
43553;BME280;29153;42.696;23.218;2023-04-26T05:55:17;93540.39;;;11.93;89.35
43553;BME280;29153;42.696;23.218;2023-04-26T05:57:45;93538.69;;;11.97;88.47
43553;BME280;29153;42.696;23.218;2023-04-26T06:00:13;93546.53;;;11.91;85.65
43553;BME280;29153;42.696;23.218;2023-04-26T06:02:41;93552.04;;;11.83;84.81
43553;BME280;29153;42.696;23.218;2023-04-26T06:05:08;93555.03;;;11.91;86.20
43553;BME280;29153;42.696;23.218;2023-04-26T06:07:36;93561.57;;;11.84;82.24
43553;BME280;29153;42.696;23.218;2023-04-26T06:10:05;93563.69;;;11.85;84.17
43553;BME280;29153;42.696;23.218;2023-04-26T06:12:32;93561.44;;;11.67;84.85
43553;BME280;29153;42.696;23.218;2023-04-26T06:15:00;93557.05;;;11.63;87.18
43553;BME280;29153;42.696;23.218;2023-04-26T06:17:27;93560.05;;;11.81;85.94
43553;BME280;29153;42.696;23.218;2023-04-26T06:19:55;93571.28;;;12.09;83.74
43553;BME280;29153;42.696;23.218;2023-04-26T06:22:22;93570.45;;;12.19;81.36
43553;BME280;29153;42.696;23.218;2023-04-26T06:24:50;93569.78;;;12.25;81.32
43553;BME280;29153;42.696;23.218;2023-04-26T06:27:17;93571.80;;;12.39;81.12
43553;BME280;29153;42.696;23.218;2023-04-26T06:29:45;93574.02;;;12.26;80.79
43553;BME280;29153;42.696;23.218;2023-04-26T06:32:13;93578.66;;;12.01;78.34
43553;BME280;29153;42.696;23.218;2023-04-26T06:34:40;93576.67;;;12.06;80.98
43553;BME280;29153;42.696;23.218;2023-04-26T06:37:09;93573.39;;;12.29;82.79
43553;BME280;29153;42.696;23.218;2023-04-26T06:39:36;93580.32;;;12.19;83.47
43553;BME280;29153;42.696;23.218;2023-04-26T06:42:04;93572.77;;;11.93;84.48
43553;BME280;29153;42.696;23.218;2023-04-26T06:44:32;93572.19;;;11.84;83.86
43553;BME280;29153;42.696;23.218;2023-04-26T06:46:59;93579.28;;;11.86;81.60
43553;BME280;29153;42.696;23.218;2023-04-26T06:49:27;93581.07;;;12.00;83.47
43553;BME280;29153;42.696;23.218;2023-04-26T06:51:54;93580.27;;;11.79;81.93
43553;BME280;29153;42.696;23.218;2023-04-26T06:54:26;93579.05;;;11.63;84.93
43553;BME280;29153;42.696;23.218;2023-04-26T06:56:51;93586.58;;;11.81;80.06
43553;BME280;29153;42.696;23.218;2023-04-26T06:59:18;93581.81;;;11.92;82.19
43553;BME280;29153;42.696;23.218;2023-04-26T07:01:47;93589.12;;;12.17;83.62
43553;BME280;29153;42.696;23.218;2023-04-26T07:04:14;93580.77;;;12.32;82.34
43553;BME280;29153;42.696;23.218;2023-04-26T07:06:43;93579.14;;;12.42;81.69
43553;BME280;29153;42.696;23.218;2023-04-26T07:09:11;93587.30;;;12.74;78.82
43553;BME280;29153;42.696;23.218;2023-04-26T07:11:39;93583.37;;;13.08;80.33
43553;BME280;29153;42.696;23.218;2023-04-26T07:14:06;93580.12;;;13.20;77.58
43553;BME280;29153;42.696;23.218;2023-04-26T07:16:34;93595.23;;;12.94;76.83
43553;BME280;29153;42.696;23.218;2023-04-26T07:19:01;93597.25;;;13.16;72.34
43553;BME280;29153;42.696;23.218;2023-04-26T07:21:28;93598.95;;;12.84;72.80
43553;BME280;29153;42.696;23.218;2023-04-26T07:23:56;93598.95;;;12.84;72.80
43553;BME280;29153;42.696;23.218;2023-04-26T07:26:24;93599.66;;;12.78;74.53
43553;BME280;29153;42.696;23.218;2023-04-26T07:28:52;93599.66;;;12.78;74.53
43553;BME280;29153;42.696;23.218;2023-04-26T07:31:20;93605.14;;;12.62;71.32
43553;BME280;29153;42.696;23.218;2023-04-26T07:33:50;93611.10;;;12.88;73.09
43553;BME280;29153;42.696;23.218;2023-04-26T07:36:18;93611.22;;;12.74;71.75
43553;BME280;29153;42.696;23.218;2023-04-26T07:38:45;93611.65;;;12.28;72.49
43553;BME280;29153;42.696;23.218;2023-04-26T07:41:13;93613.58;;;12.56;72.57
43553;BME280;29153;42.696;23.218;2023-04-26T07:43:42;93621.55;;;12.56;70.17
43553;BME280;29153;42.696;23.218;2023-04-26T07:46:10;93622.55;;;12.38;70.89
43553;BME280;29153;42.696;23.218;2023-04-26T07:48:37;93617.70;;;12.20;72.03
43553;BME280;29153;42.696;23.218;2023-04-26T07:51:11;93625.88;;;12.43;71.89
43553;BME280;29153;42.696;23.218;2023-04-26T07:53:39;93627.89;;;12.57;70.31
43553;BME280;29153;42.696;23.218;2023-04-26T07:56:07;93620.31;;;12.42;72.22
43553;BME280;29153;42.696;23.218;2023-04-26T07:58:36;93619.69;;;12.45;73.95
43553;BME280;29153;42.696;23.218;2023-04-26T08:01:05;93633.30;;;12.44;69.84
43553;BME280;29153;42.696;23.218;2023-04-26T08:03:34;93621.84;;;12.74;70.70
43553;BME280;29153;42.696;23.218;2023-04-26T08:06:01;93625.86;;;12.63;69.47
43553;BME280;29153;42.696;23.218;2023-04-26T08:08:29;93629.05;;;12.82;68.94
43553;BME280;29153;42.696;23.218;2023-04-26T08:10:58;93628.77;;;13.01;69.12
43553;BME280;29153;42.696;23.218;2023-04-26T08:13:26;93626.19;;;13.27;68.04
43553;BME280;29153;42.696;23.218;2023-04-26T08:15:53;93637.23;;;13.40;65.67
43553;BME280;29153;42.696;23.218;2023-04-26T08:18:21;93626.91;;;13.21;67.45
43553;BME280;29153;42.696;23.218;2023-04-26T08:20:48;93615.34;;;13.06;68.77
43553;BME280;29153;42.696;23.218;2023-04-26T08:23:16;93628.80;;;13.46;69.35
43553;BME280;29153;42.696;23.218;2023-04-26T08:25:44;93636.45;;;13.22;65.87
43553;BME280;29153;42.696;23.218;2023-04-26T08:28:12;93627.77;;;13.36;68.95
43553;BME280;29153;42.696;23.218;2023-04-26T08:30:40;93623.78;;;13.62;69.02
43553;BME280;29153;42.696;23.218;2023-04-26T08:33:08;93625.50;;;13.58;65.72
43553;BME280;29153;42.696;23.218;2023-04-26T08:35:36;93634.02;;;13.40;66.02
43553;BME280;29153;42.696;23.218;2023-04-26T08:38:03;93624.66;;;13.60;65.44
43553;BME280;29153;42.696;23.218;2023-04-26T08:40:31;93618.30;;;13.67;66.37
43553;BME280;29153;42.696;23.218;2023-04-26T08:42:59;93629.22;;;14.00;64.95
43553;BME280;29153;42.696;23.218;2023-04-26T08:45:26;93613.32;;;14.06;65.17
43553;BME280;29153;42.696;23.218;2023-04-26T08:47:56;93630.34;;;13.99;61.57
43553;BME280;29153;42.696;23.218;2023-04-26T08:50:25;93630.34;;;13.99;61.57
43553;BME280;29153;42.696;23.218;2023-04-26T08:52:53;93613.52;;;14.24;66.10
43553;BME280;29153;42.696;23.218;2023-04-26T08:55:21;93613.52;;;14.24;66.10
43553;BME280;29153;42.696;23.218;2023-04-26T08:57:50;93620.17;;;14.24;62.10
43553;BME280;29153;42.696;23.218;2023-04-26T09:00:18;93614.28;;;14.33;62.04
43553;BME280;29153;42.696;23.218;2023-04-26T09:02:51;93622.89;;;14.30;64.18
43553;BME280;29153;42.696;23.218;2023-04-26T09:05:19;93627.59;;;14.33;63.14
43553;BME280;29153;42.696;23.218;2023-04-26T09:07:49;93629.71;;;14.25;62.49
43553;BME280;29153;42.696;23.218;2023-04-26T09:10:19;93629.71;;;14.25;62.49
43553;BME280;29153;42.696;23.218;2023-04-26T09:12:51;93629.92;;;14.35;62.75
43553;BME280;29153;42.696;23.218;2023-04-26T09:15:20;93629.92;;;14.35;62.75
43553;BME280;29153;42.696;23.218;2023-04-26T09:17:48;93630.04;;;14.55;61.95
43553;BME280;29153;42.696;23.218;2023-04-26T09:20:22;93633.42;;;14.58;63.60
43553;BME280;29153;42.696;23.218;2023-04-26T09:22:51;93633.77;;;14.48;60.69
43553;BME280;29153;42.696;23.218;2023-04-26T09:25:27;93634.23;;;14.42;62.38
43553;BME280;29153;42.696;23.218;2023-04-26T09:27:55;93640.87;;;14.50;59.20
43553;BME280;29153;42.696;23.218;2023-04-26T09:30:24;93649.66;;;14.74;58.66
43553;BME280;29153;42.696;23.218;2023-04-26T09:35:39;93631.70;;;14.92;62.10
43553;BME280;29153;42.696;23.218;2023-04-26T09:40:44;93623.50;;;15.12;62.72
43553;BME280;29153;42.696;23.218;2023-04-26T09:43:21;93623.50;;;15.12;62.72
43553;BME280;29153;42.696;23.218;2023-04-26T09:45:56;93623.98;;;15.34;58.96
43553;BME280;29153;42.696;23.218;2023-04-26T09:48:30;93632.05;;;15.26;55.67
43553;BME280;29153;42.696;23.218;2023-04-26T09:56:17;93620.47;;;15.42;59.12
43553;BME280;29153;42.696;23.218;2023-04-26T10:01:22;93616.89;;;15.74;58.47
43553;BME280;29153;42.696;23.218;2023-04-26T10:03:50;93625.91;;;15.55;54.31
43553;BME280;29153;42.696;23.218;2023-04-26T10:06:18;93617.22;;;15.52;52.73
43553;BME280;29153;42.696;23.218;2023-04-26T10:08:46;93615.46;;;15.56;54.79
43553;BME280;29153;42.696;23.218;2023-04-26T10:11:14;93614.68;;;15.55;53.33
43553;BME280;29153;42.696;23.218;2023-04-26T10:13:42;93601.45;;;15.59;55.90
43553;BME280;29153;42.696;23.218;2023-04-26T10:16:10;93601.45;;;15.59;55.90
43553;BME280;29153;42.696;23.218;2023-04-26T10:18:37;93610.80;;;15.59;55.20
43553;BME280;29153;42.696;23.218;2023-04-26T10:21:19;93611.88;;;15.52;53.51
43553;BME280;29153;42.696;23.218;2023-04-26T10:23:44;93611.55;;;15.74;53.47
43553;BME280;29153;42.696;23.218;2023-04-26T10:26:50;93599.27;;;15.67;57.76
43553;BME280;29153;42.696;23.218;2023-04-26T10:29:21;93599.27;;;15.67;57.76
43553;BME280;29153;42.696;23.218;2023-04-26T10:32:06;93609.55;;;15.77;56.43
43553;BME280;29153;42.696;23.218;2023-04-26T10:34:34;93616.56;;;15.55;49.44
43553;BME280;29153;42.696;23.218;2023-04-26T10:39:43;93610.03;;;15.23;55.81
43553;BME280;29153;42.696;23.218;2023-04-26T10:42:18;93608.42;;;15.36;53.06
43553;BME280;29153;42.696;23.218;2023-04-26T10:44:54;93613.08;;;15.33;52.18
43553;BME280;29153;42.696;23.218;2023-04-26T10:47:30;93602.76;;;15.17;53.99
43553;BME280;29153;42.696;23.218;2023-04-26T10:50:08;93606.78;;;15.23;53.75
43553;BME280;29153;42.696;23.218;2023-04-26T10:55:40;93594.94;;;15.12;54.93
43553;BME280;29153;42.696;23.218;2023-04-26T10:58:31;93594.94;;;15.12;54.93
43553;BME280;29153;42.696;23.218;2023-04-26T11:01:16;93592.95;;;15.15;53.87
43553;BME280;29153;42.696;23.218;2023-04-26T11:09:35;93593.31;;;15.20;54.95
43553;BME280;29153;42.696;23.218;2023-04-26T11:12:10;93590.77;;;15.23;52.50
43553;BME280;29153;42.696;23.218;2023-04-26T11:14:36;93592.92;;;15.44;50.05
43553;BME280;29153;42.696;23.218;2023-04-26T11:17:07;93601.02;;;15.57;51.85
43553;BME280;29153;42.696;23.218;2023-04-26T11:19:35;93593.98;;;15.52;48.40
43553;BME280;29153;42.696;23.218;2023-04-26T11:22:06;93600.27;;;15.27;50.83
43553;BME280;29153;42.696;23.218;2023-04-26T11:24:34;93600.27;;;15.27;50.83
43553;BME280;29153;42.696;23.218;2023-04-26T11:27:10;93588.63;;;15.31;52.68
43553;BME280;29153;42.696;23.218;2023-04-26T11:29:38;93593.38;;;15.67;51.87
43553;BME280;29153;42.696;23.218;2023-04-26T11:32:05;93606.06;;;15.91;47.76
43553;BME280;29153;42.696;23.218;2023-04-26T11:34:32;93599.36;;;15.43;50.39
43553;BME280;29153;42.696;23.218;2023-04-26T11:37:04;93602.27;;;15.44;53.52
43553;BME280;29153;42.696;23.218;2023-04-26T11:39:37;93598.94;;;15.12;49.35
43553;BME280;29153;42.696;23.218;2023-04-26T11:42:10;93593.29;;;14.99;50.46
43553;BME280;29153;42.696;23.218;2023-04-26T11:44:38;93606.58;;;15.08;54.10
43553;BME280;29153;42.696;23.218;2023-04-26T11:47:07;93596.48;;;14.92;52.61
43553;BME280;29153;42.696;23.218;2023-04-26T11:49:36;93594.78;;;14.88;52.70
43553;BME280;29153;42.696;23.218;2023-04-26T11:52:04;93569.29;;;14.99;54.40
43553;BME280;29153;42.696;23.218;2023-04-26T11:54:34;93595.26;;;15.67;53.11
43553;BME280;29153;42.696;23.218;2023-04-26T11:57:16;93591.34;;;15.85;51.62
43553;BME280;29153;42.696;23.218;2023-04-26T11:59:44;93596.71;;;15.70;48.54
43553;BME280;29153;42.696;23.218;2023-04-26T12:02:11;93597.02;;;15.57;50.48
43553;BME280;29153;42.696;23.218;2023-04-26T12:04:39;93594.27;;;15.09;50.74
43553;BME280;29153;42.696;23.218;2023-04-26T12:07:07;93590.34;;;15.07;49.42
43553;BME280;29153;42.696;23.218;2023-04-26T12:09:34;93593.96;;;15.31;52.93
43553;BME280;29153;42.696;23.218;2023-04-26T12:12:04;93591.67;;;15.07;47.18
43553;BME280;29153;42.696;23.218;2023-04-26T12:14:36;93588.80;;;14.91;47.47
43553;BME280;29153;42.696;23.218;2023-04-26T12:17:05;93588.80;;;14.91;47.47
43553;BME280;29153;42.696;23.218;2023-04-26T12:19:34;93578.75;;;15.17;50.42
43553;BME280;29153;42.696;23.218;2023-04-26T12:22:03;93585.61;;;15.33;49.08
43553;BME280;29153;42.696;23.218;2023-04-26T12:24:31;93581.86;;;15.19;49.29
43553;BME280;29153;42.696;23.218;2023-04-26T12:27:05;93591.79;;;15.25;48.97
43553;BME280;29153;42.696;23.218;2023-04-26T12:29:33;93581.30;;;14.99;48.97
43553;BME280;29153;42.696;23.218;2023-04-26T12:32:01;93579.88;;;14.87;48.96
43553;BME280;29153;42.696;23.218;2023-04-26T12:34:29;93583.84;;;15.16;50.44
43553;BME280;29153;42.696;23.218;2023-04-26T12:36:56;93531.53;;;15.03;50.56
43553;BME280;29153;42.696;23.218;2023-04-26T12:39:24;93582.39;;;15.33;50.89
43553;BME280;29153;42.696;23.218;2023-04-26T12:41:52;93583.08;;;15.51;52.28
43553;BME280;29153;42.696;23.218;2023-04-26T12:44:20;93585.84;;;15.34;47.91
43553;BME280;29153;42.696;23.218;2023-04-26T12:46:48;93583.46;;;14.91;50.63
43553;BME280;29153;42.696;23.218;2023-04-26T12:49:16;93569.37;;;14.76;52.14
43553;BME280;29153;42.696;23.218;2023-04-26T12:51:44;93569.37;;;14.76;52.14
43553;BME280;29153;42.696;23.218;2023-04-26T12:54:11;93575.15;;;14.92;51.98
43553;BME280;29153;42.696;23.218;2023-04-26T12:56:39;93573.70;;;14.95;51.46
43553;BME280;29153;42.696;23.218;2023-04-26T12:59:08;93584.03;;;14.76;51.38
43553;BME280;29153;42.696;23.218;2023-04-26T13:01:36;93575.47;;;14.62;53.29
43553;BME280;29153;42.696;23.218;2023-04-26T13:04:03;93575.47;;;14.62;53.29
43553;BME280;29153;42.696;23.218;2023-04-26T13:06:31;93583.13;;;14.48;53.00
43553;BME280;29153;42.696;23.218;2023-04-26T13:08:59;93589.11;;;14.45;54.02
43553;BME280;29153;42.696;23.218;2023-04-26T13:11:27;93588.97;;;14.56;52.66
43553;BME280;29153;42.696;23.218;2023-04-26T13:13:54;93599.15;;;14.31;50.96
43553;BME280;29153;42.696;23.218;2023-04-26T13:16:21;93593.25;;;14.08;56.00
43553;BME280;29153;42.696;23.218;2023-04-26T13:18:49;93576.13;;;14.27;54.93
43553;BME280;29153;42.696;23.218;2023-04-26T13:21:17;93594.20;;;14.44;52.61
43553;BME280;29153;42.696;23.218;2023-04-26T13:23:44;93598.53;;;14.26;49.90